sensor_id;sensor_type;location;lat;lon;timestamp;temperature;humidity
4520;DHT22;2272;49.226;8.108;2022-12-20T00:00:51;2.40;99.90
4520;DHT22;2272;49.226;8.108;2022-12-20T00:03:17;2.40;99.90
4520;DHT22;2272;49.226;8.108;2022-12-20T00:05:46;2.40;99.90
4520;DHT22;2272;49.226;8.108;2022-12-20T00:08:13;2.40;99.90
4520;DHT22;2272;49.226;8.108;2022-12-20T00:10:42;2.40;99.90
4520;DHT22;2272;49.226;8.108;2022-12-20T00:13:10;2.40;99.90
4520;DHT22;2272;49.226;8.108;2022-12-20T00:15:38;2.40;99.90
4520;DHT22;2272;49.226;8.108;2022-12-20T00:18:05;2.50;99.90
4520;DHT22;2272;49.226;8.108;2022-12-20T00:20:32;2.50;99.90
4520;DHT22;2272;49.226;8.108;2022-12-20T00:22:58;2.50;99.90
4520;DHT22;2272;49.226;8.108;2022-12-20T00:25:25;2.50;99.90
4520;DHT22;2272;49.226;8.108;2022-12-20T00:27:52;2.40;99.90
4520;DHT22;2272;49.226;8.108;2022-12-20T00:30:19;2.40;99.90
4520;DHT22;2272;49.226;8.108;2022-12-20T00:32:47;2.30;99.90
4520;DHT22;2272;49.226;8.108;2022-12-20T00:35:14;2.30;99.90
4520;DHT22;2272;49.226;8.108;2022-12-20T00:37:40;2.30;99.90
4520;DHT22;2272;49.226;8.108;2022-12-20T00:40:08;2.20;99.90
4520;DHT22;2272;49.226;8.108;2022-12-20T00:42:34;2.20;99.90
4520;DHT22;2272;49.226;8.108;2022-12-20T00:45:02;2.20;99.90
4520;DHT22;2272;49.226;8.108;2022-12-20T00:47:28;2.10;99.90
4520;DHT22;2272;49.226;8.108;2022-12-20T00:49:56;2.20;99.90
4520;DHT22;2272;49.226;8.108;2022-12-20T00:52:23;2.20;99.90
4520;DHT22;2272;49.226;8.108;2022-12-20T00:54:50;2.20;99.90
4520;DHT22;2272;49.226;8.108;2022-12-20T00:57:16;2.10;99.90
4520;DHT22;2272;49.226;8.108;2022-12-20T00:59:43;2.00;99.90
4520;DHT22;2272;49.226;8.108;2022-12-20T01:02:10;2.00;99.90
4520;DHT22;2272;49.226;8.108;2022-12-20T01:04:36;1.90;99.90
4520;DHT22;2272;49.226;8.108;2022-12-20T01:07:05;1.90;99.90
4520;DHT22;2272;49.226;8.108;2022-12-20T01:09:31;1.90;99.90
4520;DHT22;2272;49.226;8.108;2022-12-20T01:11:58;1.90;99.90
4520;DHT22;2272;49.226;8.108;2022-12-20T01:14:24;1.90;99.90
4520;DHT22;2272;49.226;8.108;2022-12-20T01:16:51;1.90;99.90
4520;DHT22;2272;49.226;8.108;2022-12-20T01:19:18;1.90;99.90
4520;DHT22;2272;49.226;8.108;2022-12-20T01:21:45;1.90;99.90
4520;DHT22;2272;49.226;8.108;2022-12-20T01:24:14;1.90;99.90
4520;DHT22;2272;49.226;8.108;2022-12-20T01:26:41;1.90;99.90
4520;DHT22;2272;49.226;8.108;2022-12-20T01:29:08;1.90;99.90
4520;DHT22;2272;49.226;8.108;2022-12-20T01:31:36;1.90;99.90
4520;DHT22;2272;49.226;8.108;2022-12-20T01:34:02;1.90;99.90
4520;DHT22;2272;49.226;8.108;2022-12-20T01:36:31;1.90;99.90
4520;DHT22;2272;49.226;8.108;2022-12-20T01:38:59;1.80;99.90
4520;DHT22;2272;49.226;8.108;2022-12-20T01:41:29;1.80;99.90
4520;DHT22;2272;49.226;8.108;2022-12-20T01:43:58;1.80;99.90
4520;DHT22;2272;49.226;8.108;2022-12-20T01:46:27;1.80;99.90
4520;DHT22;2272;49.226;8.108;2022-12-20T01:48:58;1.80;99.90
4520;DHT22;2272;49.226;8.108;2022-12-20T01:51:29;1.70;99.90
4520;DHT22;2272;49.226;8.108;2022-12-20T01:54:00;1.70;99.90
4520;DHT22;2272;49.226;8.108;2022-12-20T01:56:29;1.60;99.90
4520;DHT22;2272;49.226;8.108;2022-12-20T01:58:56;1.60;99.90
4520;DHT22;2272;49.226;8.108;2022-12-20T02:01:24;1.60;99.90
4520;DHT22;2272;49.226;8.108;2022-12-20T02:03:54;1.50;99.90
4520;DHT22;2272;49.226;8.108;2022-12-20T02:06:23;1.50;99.90
4520;DHT22;2272;49.226;8.108;2022-12-20T02:08:52;1.40;99.90
4520;DHT22;2272;49.226;8.108;2022-12-20T02:11:40;1.40;99.90
4520;DHT22;2272;49.226;8.108;2022-12-20T02:14:17;1.30;99.90
4520;DHT22;2272;49.226;8.108;2022-12-20T02:16:51;1.30;99.90
4520;DHT22;2272;49.226;8.108;2022-12-20T02:19:35;1.20;99.90
4520;DHT22;2272;49.226;8.108;2022-12-20T02:22:15;1.20;99.90
4520;DHT22;2272;49.226;8.108;2022-12-20T02:25:00;1.20;99.90
4520;DHT22;2272;49.226;8.108;2022-12-20T02:27:47;1.30;99.90
4520;DHT22;2272;49.226;8.108;2022-12-20T02:30:18;1.30;99.90
4520;DHT22;2272;49.226;8.108;2022-12-20T02:32:53;1.30;99.90
4520;DHT22;2272;49.226;8.108;2022-12-20T02:35:25;1.30;99.90
4520;DHT22;2272;49.226;8.108;2022-12-20T02:37:54;1.40;99.90
4520;DHT22;2272;49.226;8.108;2022-12-20T02:40:24;1.40;99.90
4520;DHT22;2272;49.226;8.108;2022-12-20T02:42:53;1.50;99.90
4520;DHT22;2272;49.226;8.108;2022-12-20T02:45:26;1.50;99.90
4520;DHT22;2272;49.226;8.108;2022-12-20T02:47:55;1.60;99.90
4520;DHT22;2272;49.226;8.108;2022-12-20T02:50:27;1.70;99.90
4520;DHT22;2272;49.226;8.108;2022-12-20T02:52:55;1.70;99.90
4520;DHT22;2272;49.226;8.108;2022-12-20T02:55:27;1.70;99.90
4520;DHT22;2272;49.226;8.108;2022-12-20T02:57:59;1.80;99.90
4520;DHT22;2272;49.226;8.108;2022-12-20T03:00:32;1.70;99.90
4520;DHT22;2272;49.226;8.108;2022-12-20T03:02:59;1.80;99.90
4520;DHT22;2272;49.226;8.108;2022-12-20T03:05:51;1.70;99.90
4520;DHT22;2272;49.226;8.108;2022-12-20T03:08:19;1.70;99.90
4520;DHT22;2272;49.226;8.108;2022-12-20T03:10:46;1.80;99.90
4520;DHT22;2272;49.226;8.108;2022-12-20T03:13:13;1.80;99.90
4520;DHT22;2272;49.226;8.108;2022-12-20T03:15:41;1.70;99.90
4520;DHT22;2272;49.226;8.108;2022-12-20T03:18:08;1.70;99.90
4520;DHT22;2272;49.226;8.108;2022-12-20T03:20:35;1.70;99.90
4520;DHT22;2272;49.226;8.108;2022-12-20T03:23:01;1.70;99.90
4520;DHT22;2272;49.226;8.108;2022-12-20T03:25:28;1.70;99.90
4520;DHT22;2272;49.226;8.108;2022-12-20T03:27:55;1.70;99.90
4520;DHT22;2272;49.226;8.108;2022-12-20T03:30:22;1.70;99.90
4520;DHT22;2272;49.226;8.108;2022-12-20T03:32:50;1.60;99.90
4520;DHT22;2272;49.226;8.108;2022-12-20T03:35:17;1.60;99.90
4520;DHT22;2272;49.226;8.108;2022-12-20T03:37:43;1.60;99.90
4520;DHT22;2272;49.226;8.108;2022-12-20T03:40:11;1.60;99.90
4520;DHT22;2272;49.226;8.108;2022-12-20T03:42:38;1.70;99.90
4520;DHT22;2272;49.226;8.108;2022-12-20T03:45:06;1.70;99.90
4520;DHT22;2272;49.226;8.108;2022-12-20T03:47:32;1.70;99.90
4520;DHT22;2272;49.226;8.108;2022-12-20T03:50:01;1.80;99.90
4520;DHT22;2272;49.226;8.108;2022-12-20T03:52:27;1.80;99.90
4520;DHT22;2272;49.226;8.108;2022-12-20T03:54:54;1.80;99.90
4520;DHT22;2272;49.226;8.108;2022-12-20T03:57:21;1.70;99.90
4520;DHT22;2272;49.226;8.108;2022-12-20T03:59:47;1.70;99.90
4520;DHT22;2272;49.226;8.108;2022-12-20T04:02:14;1.70;99.90
4520;DHT22;2272;49.226;8.108;2022-12-20T04:04:41;1.70;99.90
4520;DHT22;2272;49.226;8.108;2022-12-20T04:07:09;1.70;99.90
4520;DHT22;2272;49.226;8.108;2022-12-20T04:09:36;1.80;99.90
4520;DHT22;2272;49.226;8.108;2022-12-20T04:12:03;1.90;99.90
4520;DHT22;2272;49.226;8.108;2022-12-20T04:14:29;2.00;99.90
4520;DHT22;2272;49.226;8.108;2022-12-20T04:16:56;2.10;99.90
4520;DHT22;2272;49.226;8.108;2022-12-20T04:19:23;2.10;99.90
4520;DHT22;2272;49.226;8.108;2022-12-20T04:21:50;2.20;99.90
4520;DHT22;2272;49.226;8.108;2022-12-20T04:24:18;2.20;99.90
4520;DHT22;2272;49.226;8.108;2022-12-20T04:26:45;2.30;99.90
4520;DHT22;2272;49.226;8.108;2022-12-20T04:29:11;2.20;99.90
4520;DHT22;2272;49.226;8.108;2022-12-20T04:31:38;2.30;99.90
4520;DHT22;2272;49.226;8.108;2022-12-20T04:34:05;2.20;99.90
4520;DHT22;2272;49.226;8.108;2022-12-20T04:36:32;2.30;99.90
4520;DHT22;2272;49.226;8.108;2022-12-20T04:38:58;2.30;99.90
4520;DHT22;2272;49.226;8.108;2022-12-20T04:41:26;2.30;99.90
4520;DHT22;2272;49.226;8.108;2022-12-20T04:43:55;2.30;99.90
4520;DHT22;2272;49.226;8.108;2022-12-20T04:46:23;2.30;99.90
4520;DHT22;2272;49.226;8.108;2022-12-20T04:48:50;2.40;99.90
4520;DHT22;2272;49.226;8.108;2022-12-20T04:51:17;2.30;99.90
4520;DHT22;2272;49.226;8.108;2022-12-20T04:53:44;2.40;99.90
4520;DHT22;2272;49.226;8.108;2022-12-20T04:56:14;2.40;99.90
4520;DHT22;2272;49.226;8.108;2022-12-20T04:58:42;2.50;99.90
4520;DHT22;2272;49.226;8.108;2022-12-20T05:01:09;2.50;99.90
4520;DHT22;2272;49.226;8.108;2022-12-20T05:03:37;2.50;99.90
4520;DHT22;2272;49.226;8.108;2022-12-20T05:06:04;2.50;99.90
4520;DHT22;2272;49.226;8.108;2022-12-20T05:08:31;2.60;99.90
4520;DHT22;2272;49.226;8.108;2022-12-20T05:10:58;2.60;99.90
4520;DHT22;2272;49.226;8.108;2022-12-20T05:13:25;2.60;99.90
4520;DHT22;2272;49.226;8.108;2022-12-20T05:15:54;2.60;99.90
4520;DHT22;2272;49.226;8.108;2022-12-20T05:18:21;2.60;99.90
4520;DHT22;2272;49.226;8.108;2022-12-20T05:20:49;2.60;99.90
4520;DHT22;2272;49.226;8.108;2022-12-20T05:23:37;2.60;99.90
4520;DHT22;2272;49.226;8.108;2022-12-20T05:26:22;2.70;99.90
4520;DHT22;2272;49.226;8.108;2022-12-20T05:28:49;2.70;99.90
4520;DHT22;2272;49.226;8.108;2022-12-20T05:31:18;2.70;99.90
4520;DHT22;2272;49.226;8.108;2022-12-20T05:33:44;2.80;99.90
4520;DHT22;2272;49.226;8.108;2022-12-20T05:36:11;2.80;99.90
4520;DHT22;2272;49.226;8.108;2022-12-20T05:38:38;2.90;99.90
4520;DHT22;2272;49.226;8.108;2022-12-20T05:41:05;3.00;99.90
4520;DHT22;2272;49.226;8.108;2022-12-20T05:43:33;3.10;99.90
4520;DHT22;2272;49.226;8.108;2022-12-20T05:45:59;3.30;99.90
4520;DHT22;2272;49.226;8.108;2022-12-20T05:48:27;3.30;99.90
4520;DHT22;2272;49.226;8.108;2022-12-20T05:50:54;3.40;99.90
4520;DHT22;2272;49.226;8.108;2022-12-20T05:53:21;3.50;99.90
4520;DHT22;2272;49.226;8.108;2022-12-20T05:55:49;3.60;99.90
4520;DHT22;2272;49.226;8.108;2022-12-20T05:58:16;3.70;99.90
4520;DHT22;2272;49.226;8.108;2022-12-20T06:00:43;3.70;99.90
4520;DHT22;2272;49.226;8.108;2022-12-20T06:03:12;3.80;99.90
4520;DHT22;2272;49.226;8.108;2022-12-20T06:05:41;3.80;99.90
4520;DHT22;2272;49.226;8.108;2022-12-20T06:08:08;3.80;99.90
4520;DHT22;2272;49.226;8.108;2022-12-20T06:10:35;3.70;99.90
4520;DHT22;2272;49.226;8.108;2022-12-20T06:13:02;3.60;99.90
4520;DHT22;2272;49.226;8.108;2022-12-20T06:15:30;3.50;99.90
4520;DHT22;2272;49.226;8.108;2022-12-20T06:17:56;3.50;99.90
4520;DHT22;2272;49.226;8.108;2022-12-20T06:20:23;3.40;99.90
4520;DHT22;2272;49.226;8.108;2022-12-20T06:22:51;3.30;99.90
4520;DHT22;2272;49.226;8.108;2022-12-20T06:25:18;3.30;99.90
4520;DHT22;2272;49.226;8.108;2022-12-20T06:27:45;3.30;99.90
4520;DHT22;2272;49.226;8.108;2022-12-20T06:30:12;3.40;99.90
4520;DHT22;2272;49.226;8.108;2022-12-20T06:32:39;3.40;99.90
4520;DHT22;2272;49.226;8.108;2022-12-20T06:35:06;3.40;99.90
4520;DHT22;2272;49.226;8.108;2022-12-20T06:37:33;3.40;99.90
4520;DHT22;2272;49.226;8.108;2022-12-20T06:40:02;3.50;99.90
4520;DHT22;2272;49.226;8.108;2022-12-20T06:42:31;3.50;99.90
4520;DHT22;2272;49.226;8.108;2022-12-20T06:44:58;3.60;99.90
4520;DHT22;2272;49.226;8.108;2022-12-20T06:47:24;3.70;99.90
4520;DHT22;2272;49.226;8.108;2022-12-20T06:49:51;3.70;99.90
4520;DHT22;2272;49.226;8.108;2022-12-20T06:52:18;3.80;99.90
4520;DHT22;2272;49.226;8.108;2022-12-20T06:54:44;3.80;99.90
4520;DHT22;2272;49.226;8.108;2022-12-20T06:57:12;3.90;99.90
4520;DHT22;2272;49.226;8.108;2022-12-20T06:59:39;3.80;99.90
4520;DHT22;2272;49.226;8.108;2022-12-20T07:02:06;3.90;99.90
4520;DHT22;2272;49.226;8.108;2022-12-20T07:04:32;3.90;99.90
4520;DHT22;2272;49.226;8.108;2022-12-20T07:06:59;3.90;99.90
4520;DHT22;2272;49.226;8.108;2022-12-20T07:09:26;3.90;99.90
4520;DHT22;2272;49.226;8.108;2022-12-20T07:11:52;3.90;99.90
4520;DHT22;2272;49.226;8.108;2022-12-20T07:14:20;3.90;99.90
4520;DHT22;2272;49.226;8.108;2022-12-20T07:16:47;3.90;99.90
4520;DHT22;2272;49.226;8.108;2022-12-20T07:19:14;3.80;99.90
4520;DHT22;2272;49.226;8.108;2022-12-20T07:21:42;3.80;99.90
4520;DHT22;2272;49.226;8.108;2022-12-20T07:24:09;3.80;99.90
4520;DHT22;2272;49.226;8.108;2022-12-20T07:26:35;3.80;99.90
4520;DHT22;2272;49.226;8.108;2022-12-20T07:29:02;3.80;99.90
4520;DHT22;2272;49.226;8.108;2022-12-20T07:31:30;3.80;99.90
4520;DHT22;2272;49.226;8.108;2022-12-20T07:33:57;3.90;99.90
4520;DHT22;2272;49.226;8.108;2022-12-20T07:36:23;3.90;99.90
4520;DHT22;2272;49.226;8.108;2022-12-20T07:38:50;4.00;99.90
4520;DHT22;2272;49.226;8.108;2022-12-20T07:41:17;4.10;99.90
4520;DHT22;2272;49.226;8.108;2022-12-20T07:43:44;4.10;99.90
4520;DHT22;2272;49.226;8.108;2022-12-20T07:46:13;4.20;99.90
4520;DHT22;2272;49.226;8.108;2022-12-20T07:48:42;4.30;99.90
4520;DHT22;2272;49.226;8.108;2022-12-20T07:51:12;4.30;99.90
4520;DHT22;2272;49.226;8.108;2022-12-20T07:53:44;4.40;99.90
4520;DHT22;2272;49.226;8.108;2022-12-20T07:56:13;4.50;99.90
4520;DHT22;2272;49.226;8.108;2022-12-20T07:58:41;4.50;99.90
4520;DHT22;2272;49.226;8.108;2022-12-20T08:01:09;4.70;99.90
4520;DHT22;2272;49.226;8.108;2022-12-20T08:03:38;4.90;99.90
4520;DHT22;2272;49.226;8.108;2022-12-20T08:06:08;5.10;99.90
4520;DHT22;2272;49.226;8.108;2022-12-20T08:08:38;5.20;99.90
4520;DHT22;2272;49.226;8.108;2022-12-20T08:11:06;5.40;99.90
4520;DHT22;2272;49.226;8.108;2022-12-20T08:13:34;5.60;99.90
4520;DHT22;2272;49.226;8.108;2022-12-20T08:16:01;5.60;99.90
4520;DHT22;2272;49.226;8.108;2022-12-20T08:18:28;5.70;99.90
4520;DHT22;2272;49.226;8.108;2022-12-20T08:20:54;5.70;99.90
4520;DHT22;2272;49.226;8.108;2022-12-20T08:23:23;5.70;99.90
4520;DHT22;2272;49.226;8.108;2022-12-20T08:25:50;5.80;99.90
4520;DHT22;2272;49.226;8.108;2022-12-20T08:28:16;5.90;99.90
4520;DHT22;2272;49.226;8.108;2022-12-20T08:30:43;6.10;99.90
4520;DHT22;2272;49.226;8.108;2022-12-20T08:33:11;6.10;99.90
4520;DHT22;2272;49.226;8.108;2022-12-20T08:35:37;6.10;99.90
4520;DHT22;2272;49.226;8.108;2022-12-20T08:38:04;6.10;99.90
4520;DHT22;2272;49.226;8.108;2022-12-20T08:40:33;6.10;99.90
4520;DHT22;2272;49.226;8.108;2022-12-20T08:42:59;6.20;99.90
4520;DHT22;2272;49.226;8.108;2022-12-20T08:45:27;6.40;99.90
4520;DHT22;2272;49.226;8.108;2022-12-20T08:47:54;6.60;99.90
4520;DHT22;2272;49.226;8.108;2022-12-20T08:52:47;7.20;99.90
4520;DHT22;2272;49.226;8.108;2022-12-20T08:55:14;7.40;99.90
4520;DHT22;2272;49.226;8.108;2022-12-20T08:57:42;7.60;99.90
4520;DHT22;2272;49.226;8.108;2022-12-20T09:00:10;7.80;99.90
4520;DHT22;2272;49.226;8.108;2022-12-20T09:05:06;7.80;99.90
4520;DHT22;2272;49.226;8.108;2022-12-20T09:07:33;7.90;99.90
4520;DHT22;2272;49.226;8.108;2022-12-20T09:09:59;7.90;99.90
4520;DHT22;2272;49.226;8.108;2022-12-20T09:12:26;8.00;99.90
4520;DHT22;2272;49.226;8.108;2022-12-20T09:14:54;8.00;99.90
4520;DHT22;2272;49.226;8.108;2022-12-20T09:17:22;7.90;99.90
4520;DHT22;2272;49.226;8.108;2022-12-20T09:19:48;7.90;99.90
4520;DHT22;2272;49.226;8.108;2022-12-20T09:22:15;7.80;99.90
4520;DHT22;2272;49.226;8.108;2022-12-20T09:24:42;7.80;99.90
4520;DHT22;2272;49.226;8.108;2022-12-20T09:27:08;7.90;99.90
4520;DHT22;2272;49.226;8.108;2022-12-20T09:29:35;7.90;99.90
4520;DHT22;2272;49.226;8.108;2022-12-20T09:32:03;8.00;99.90
4520;DHT22;2272;49.226;8.108;2022-12-20T09:34:30;8.10;99.90
4520;DHT22;2272;49.226;8.108;2022-12-20T09:36:57;8.30;99.90
4520;DHT22;2272;49.226;8.108;2022-12-20T09:39:23;8.50;99.90
4520;DHT22;2272;49.226;8.108;2022-12-20T09:44:20;8.80;99.90
4520;DHT22;2272;49.226;8.108;2022-12-20T09:46:53;9.00;99.90
4520;DHT22;2272;49.226;8.108;2022-12-20T09:52:16;9.20;99.90
4520;DHT22;2272;49.226;8.108;2022-12-20T09:57:22;9.50;99.90
4520;DHT22;2272;49.226;8.108;2022-12-20T09:59:55;9.60;99.90
4520;DHT22;2272;49.226;8.108;2022-12-20T10:04:52;9.90;99.90
4520;DHT22;2272;49.226;8.108;2022-12-20T10:07:29;9.90;99.90
4520;DHT22;2272;49.226;8.108;2022-12-20T10:10:16;10.00;99.90
4520;DHT22;2272;49.226;8.108;2022-12-20T10:15:19;10.00;99.90
4520;DHT22;2272;49.226;8.108;2022-12-20T10:17:57;9.90;99.90
4520;DHT22;2272;49.226;8.108;2022-12-20T10:20:37;9.90;99.90
4520;DHT22;2272;49.226;8.108;2022-12-20T10:23:11;9.90;99.90
4520;DHT22;2272;49.226;8.108;2022-12-20T10:25:39;9.90;99.90
4520;DHT22;2272;49.226;8.108;2022-12-20T10:28:12;10.00;99.90
4520;DHT22;2272;49.226;8.108;2022-12-20T10:30:39;9.90;99.90
4520;DHT22;2272;49.226;8.108;2022-12-20T10:33:13;9.80;99.90
4520;DHT22;2272;49.226;8.108;2022-12-20T10:35:43;9.70;99.90
4520;DHT22;2272;49.226;8.108;2022-12-20T10:38:11;9.60;99.90
4520;DHT22;2272;49.226;8.108;2022-12-20T10:40:40;9.50;99.90
4520;DHT22;2272;49.226;8.108;2022-12-20T10:43:14;9.30;99.90
4520;DHT22;2272;49.226;8.108;2022-12-20T10:45:42;9.30;99.90
4520;DHT22;2272;49.226;8.108;2022-12-20T10:48:28;9.20;99.90
4520;DHT22;2272;49.226;8.108;2022-12-20T10:50:59;9.20;99.90
4520;DHT22;2272;49.226;8.108;2022-12-20T10:53:28;9.20;99.90
4520;DHT22;2272;49.226;8.108;2022-12-20T10:56:11;9.20;99.90
4520;DHT22;2272;49.226;8.108;2022-12-20T10:58:39;9.20;99.90
4520;DHT22;2272;49.226;8.108;2022-12-20T11:01:12;9.30;99.90
4520;DHT22;2272;49.226;8.108;2022-12-20T11:03:49;9.40;99.90
4520;DHT22;2272;49.226;8.108;2022-12-20T11:06:20;9.60;99.90
4520;DHT22;2272;49.226;8.108;2022-12-20T11:08:47;9.70;99.90
4520;DHT22;2272;49.226;8.108;2022-12-20T11:11:17;9.90;99.90
4520;DHT22;2272;49.226;8.108;2022-12-20T11:13:45;10.00;99.90
4520;DHT22;2272;49.226;8.108;2022-12-20T11:16:36;10.10;99.90
4520;DHT22;2272;49.226;8.108;2022-12-20T11:19:35;10.10;99.90
4520;DHT22;2272;49.226;8.108;2022-12-20T11:22:17;10.10;99.90
4520;DHT22;2272;49.226;8.108;2022-12-20T11:24:51;10.10;99.90
4520;DHT22;2272;49.226;8.108;2022-12-20T11:27:26;10.00;99.90
4520;DHT22;2272;49.226;8.108;2022-12-20T11:30:07;9.90;99.90
4520;DHT22;2272;49.226;8.108;2022-12-20T11:32:49;9.90;99.90
4520;DHT22;2272;49.226;8.108;2022-12-20T11:35:22;9.80;99.90
4520;DHT22;2272;49.226;8.108;2022-12-20T11:37:58;9.70;99.90
4520;DHT22;2272;49.226;8.108;2022-12-20T11:40:30;9.70;99.90
4520;DHT22;2272;49.226;8.108;2022-12-20T11:43:13;9.60;99.90
4520;DHT22;2272;49.226;8.108;2022-12-20T11:46:00;9.60;99.90
4520;DHT22;2272;49.226;8.108;2022-12-20T11:48:40;9.50;99.90
4520;DHT22;2272;49.226;8.108;2022-12-20T11:51:17;9.50;99.90
4520;DHT22;2272;49.226;8.108;2022-12-20T11:53:54;9.40;99.90
4520;DHT22;2272;49.226;8.108;2022-12-20T11:56:25;9.30;99.90
4520;DHT22;2272;49.226;8.108;2022-12-20T11:58:55;9.30;99.90
4520;DHT22;2272;49.226;8.108;2022-12-20T12:01:28;9.20;99.90
4520;DHT22;2272;49.226;8.108;2022-12-20T12:04:02;9.10;99.90
4520;DHT22;2272;49.226;8.108;2022-12-20T12:06:33;8.90;99.90
4520;DHT22;2272;49.226;8.108;2022-12-20T12:09:10;8.90;99.90
4520;DHT22;2272;49.226;8.108;2022-12-20T12:11:42;8.90;99.90
4520;DHT22;2272;49.226;8.108;2022-12-20T12:14:17;8.80;99.90
4520;DHT22;2272;49.226;8.108;2022-12-20T12:16:50;8.80;99.90
4520;DHT22;2272;49.226;8.108;2022-12-20T12:19:18;8.80;99.90
4520;DHT22;2272;49.226;8.108;2022-12-20T12:21:48;8.80;99.90
4520;DHT22;2272;49.226;8.108;2022-12-20T12:24:22;8.90;99.90
4520;DHT22;2272;49.226;8.108;2022-12-20T12:26:51;8.90;99.90
4520;DHT22;2272;49.226;8.108;2022-12-20T12:29:18;9.10;99.90
4520;DHT22;2272;49.226;8.108;2022-12-20T12:31:48;9.20;99.90
4520;DHT22;2272;49.226;8.108;2022-12-20T12:34:27;9.40;99.90
4520;DHT22;2272;49.226;8.108;2022-12-20T12:37:25;9.70;99.90
4520;DHT22;2272;49.226;8.108;2022-12-20T12:40:15;9.90;99.90
4520;DHT22;2272;49.226;8.108;2022-12-20T12:43:04;10.20;99.90
4520;DHT22;2272;49.226;8.108;2022-12-20T12:45:37;10.40;99.90
4520;DHT22;2272;49.226;8.108;2022-12-20T12:48:13;10.60;99.90
4520;DHT22;2272;49.226;8.108;2022-12-20T12:50:45;10.90;99.90
4520;DHT22;2272;49.226;8.108;2022-12-20T12:53:15;11.00;99.90
4520;DHT22;2272;49.226;8.108;2022-12-20T12:55:45;11.00;99.90
4520;DHT22;2272;49.226;8.108;2022-12-20T12:58:36;11.00;99.90
4520;DHT22;2272;49.226;8.108;2022-12-20T13:01:05;11.10;99.90
4520;DHT22;2272;49.226;8.108;2022-12-20T13:03:43;11.00;99.90
4520;DHT22;2272;49.226;8.108;2022-12-20T13:09:40;10.70;99.90
4520;DHT22;2272;49.226;8.108;2022-12-20T13:12:54;10.60;99.90
4520;DHT22;2272;49.226;8.108;2022-12-20T13:18:26;10.30;99.90
4520;DHT22;2272;49.226;8.108;2022-12-20T13:21:34;10.10;99.90
4520;DHT22;2272;49.226;8.108;2022-12-20T13:27:34;9.70;99.90
4520;DHT22;2272;49.226;8.108;2022-12-20T13:30:24;9.50;99.90
4520;DHT22;2272;49.226;8.108;2022-12-20T13:36:12;9.50;99.90
4520;DHT22;2272;49.226;8.108;2022-12-20T13:38:55;9.60;99.90
4520;DHT22;2272;49.226;8.108;2022-12-20T13:41:34;9.70;99.90
4520;DHT22;2272;49.226;8.108;2022-12-20T13:44:25;9.80;99.90
4520;DHT22;2272;49.226;8.108;2022-12-20T13:46:57;9.90;99.90
4520;DHT22;2272;49.226;8.108;2022-12-20T13:49:28;9.90;99.90
4520;DHT22;2272;49.226;8.108;2022-12-20T13:52:13;9.90;99.90
4520;DHT22;2272;49.226;8.108;2022-12-20T13:54:42;9.90;99.90
4520;DHT22;2272;49.226;8.108;2022-12-20T13:57:14;9.90;99.90
4520;DHT22;2272;49.226;8.108;2022-12-20T13:59:45;9.90;99.90
4520;DHT22;2272;49.226;8.108;2022-12-20T14:02:19;9.90;99.90
4520;DHT22;2272;49.226;8.108;2022-12-20T14:04:53;10.00;99.90
4520;DHT22;2272;49.226;8.108;2022-12-20T14:07:21;10.00;99.90
4520;DHT22;2272;49.226;8.108;2022-12-20T14:09:55;9.90;99.90
4520;DHT22;2272;49.226;8.108;2022-12-20T14:12:22;9.90;99.90
4520;DHT22;2272;49.226;8.108;2022-12-20T14:14:50;10.00;99.90
4520;DHT22;2272;49.226;8.108;2022-12-20T14:17:22;10.00;99.90
4520;DHT22;2272;49.226;8.108;2022-12-20T14:20:14;9.90;99.90
4520;DHT22;2272;49.226;8.108;2022-12-20T14:22:48;9.90;99.90
4520;DHT22;2272;49.226;8.108;2022-12-20T14:25:26;9.80;99.90
4520;DHT22;2272;49.226;8.108;2022-12-20T14:27:53;9.90;99.90
4520;DHT22;2272;49.226;8.108;2022-12-20T14:30:32;9.80;99.90
4520;DHT22;2272;49.226;8.108;2022-12-20T14:33:01;9.80;99.90
4520;DHT22;2272;49.226;8.108;2022-12-20T14:35:28;9.80;99.90
4520;DHT22;2272;49.226;8.108;2022-12-20T14:37:57;9.70;99.90
4520;DHT22;2272;49.226;8.108;2022-12-20T14:40:25;9.60;99.90
4520;DHT22;2272;49.226;8.108;2022-12-20T14:42:51;9.60;99.90
4520;DHT22;2272;49.226;8.108;2022-12-20T14:45:22;9.60;99.90
4520;DHT22;2272;49.226;8.108;2022-12-20T14:47:55;9.50;99.90
4520;DHT22;2272;49.226;8.108;2022-12-20T14:50:28;9.50;99.90
4520;DHT22;2272;49.226;8.108;2022-12-20T14:52:55;9.50;99.90
4520;DHT22;2272;49.226;8.108;2022-12-20T14:55:31;9.50;99.90
4520;DHT22;2272;49.226;8.108;2022-12-20T14:57:58;9.50;99.90
4520;DHT22;2272;49.226;8.108;2022-12-20T15:00:27;9.50;99.90
4520;DHT22;2272;49.226;8.108;2022-12-20T15:03:01;9.50;99.90
4520;DHT22;2272;49.226;8.108;2022-12-20T15:05:42;9.60;99.90
4520;DHT22;2272;49.226;8.108;2022-12-20T15:08:12;9.60;99.90
4520;DHT22;2272;49.226;8.108;2022-12-20T15:10:39;9.60;99.90
4520;DHT22;2272;49.226;8.108;2022-12-20T15:13:11;9.70;99.90
4520;DHT22;2272;49.226;8.108;2022-12-20T15:15:39;9.70;99.90
4520;DHT22;2272;49.226;8.108;2022-12-20T15:18:10;9.60;99.90
4520;DHT22;2272;49.226;8.108;2022-12-20T15:20:39;9.50;99.90
4520;DHT22;2272;49.226;8.108;2022-12-20T15:23:12;9.40;99.90
4520;DHT22;2272;49.226;8.108;2022-12-20T15:25:39;9.40;99.90
4520;DHT22;2272;49.226;8.108;2022-12-20T15:28:15;9.40;99.90
4520;DHT22;2272;49.226;8.108;2022-12-20T15:30:43;9.40;99.90
4520;DHT22;2272;49.226;8.108;2022-12-20T15:33:17;9.40;99.90
4520;DHT22;2272;49.226;8.108;2022-12-20T15:35:47;9.40;99.90
4520;DHT22;2272;49.226;8.108;2022-12-20T15:38:16;9.40;99.90
4520;DHT22;2272;49.226;8.108;2022-12-20T15:40:44;9.40;99.90
4520;DHT22;2272;49.226;8.108;2022-12-20T15:43:13;9.40;99.90
4520;DHT22;2272;49.226;8.108;2022-12-20T15:45:41;9.50;99.90
4520;DHT22;2272;49.226;8.108;2022-12-20T15:48:15;9.50;99.90
4520;DHT22;2272;49.226;8.108;2022-12-20T15:50:44;9.60;99.90
4520;DHT22;2272;49.226;8.108;2022-12-20T15:53:16;9.60;99.90
4520;DHT22;2272;49.226;8.108;2022-12-20T15:55:48;9.60;99.90
4520;DHT22;2272;49.226;8.108;2022-12-20T15:58:14;9.60;99.90
4520;DHT22;2272;49.226;8.108;2022-12-20T16:00:41;9.60;99.90
4520;DHT22;2272;49.226;8.108;2022-12-20T16:03:13;9.60;99.90
4520;DHT22;2272;49.226;8.108;2022-12-20T16:05:40;9.60;99.90
4520;DHT22;2272;49.226;8.108;2022-12-20T16:08:07;9.60;99.90
4520;DHT22;2272;49.226;8.108;2022-12-20T16:10:35;9.60;99.90
4520;DHT22;2272;49.226;8.108;2022-12-20T16:13:02;9.60;99.90
4520;DHT22;2272;49.226;8.108;2022-12-20T16:15:29;9.50;99.90
4520;DHT22;2272;49.226;8.108;2022-12-20T16:17:56;9.40;99.90
4520;DHT22;2272;49.226;8.108;2022-12-20T16:20:23;9.20;99.90
4520;DHT22;2272;49.226;8.108;2022-12-20T16:22:52;9.10;99.90
4520;DHT22;2272;49.226;8.108;2022-12-20T16:25:27;8.90;99.90
4520;DHT22;2272;49.226;8.108;2022-12-20T16:27:56;8.70;99.90
4520;DHT22;2272;49.226;8.108;2022-12-20T16:30:23;8.60;99.90
4520;DHT22;2272;49.226;8.108;2022-12-20T16:32:50;8.60;99.90
4520;DHT22;2272;49.226;8.108;2022-12-20T16:35:26;8.50;99.90
4520;DHT22;2272;49.226;8.108;2022-12-20T16:37:53;8.60;99.90
4520;DHT22;2272;49.226;8.108;2022-12-20T16:40:22;8.60;99.90
4520;DHT22;2272;49.226;8.108;2022-12-20T16:42:48;8.60;99.90
4520;DHT22;2272;49.226;8.108;2022-12-20T16:45:20;8.60;99.90
4520;DHT22;2272;49.226;8.108;2022-12-20T16:47:47;8.50;99.90
4520;DHT22;2272;49.226;8.108;2022-12-20T16:50:15;8.50;99.90
4520;DHT22;2272;49.226;8.108;2022-12-20T16:52:43;8.50;99.90
4520;DHT22;2272;49.226;8.108;2022-12-20T16:55:13;8.50;99.90
4520;DHT22;2272;49.226;8.108;2022-12-20T16:57:40;8.50;99.90
4520;DHT22;2272;49.226;8.108;2022-12-20T17:00:09;8.60;99.90
4520;DHT22;2272;49.226;8.108;2022-12-20T17:02:42;8.60;99.90
4520;DHT22;2272;49.226;8.108;2022-12-20T17:05:19;8.70;99.90
4520;DHT22;2272;49.226;8.108;2022-12-20T17:07:46;8.70;99.90